• Join FlightAware (Why Join?)
  • Login
  • US Flag 
08:17AM EST


 

Airport Tracker/Info


-or-


 

Live Flight TrackerFlight Track Log ✈ N924AK ✈ 26-Apr-2013 ✈ KPDK - KOCF

Flight Track Log - Related Links

Times and Time Zones

All times are in EDT time to prevent confusion due to time zone crossing. See the N924AK flight status page for this flight to view local times or setup timezone preferences in your user account.

Time Position Orientation Groundspeed Altitude Reporting Facility
EDT Latitude Longitude Course Direction KTS MPH feet Rate Location/Type
01:29PM 33.9000 -84.2833 51° Northeast 182 209 2,100  Level Atlanta TRACON
01:30PM 33.9333 -84.2333 51° Northeast 213 245 3,000 720 Climbing Atlanta TRACON
01:31PM 33.9000 -84.1667 121° Southeast 211 243 3,500 1,740 Climbing Atlanta TRACON
01:32PM 33.8500 -84.1167 140° Southeast 229 264 6,500 2,400 Climbing Atlanta TRACON
01:32PM 33.8233 -84.0889 139° Southeast 258 297 7,100 2,220 Climbing Atlanta Center
01:33PM 33.7544 -84.1114 195° South 277 319 9,900 1,440 Climbing Atlanta Center
01:34PM 33.6628 -84.1411 195° South 312 359 10,000  Climbing Atlanta Center
01:35PM 33.5667 -84.1658 192° South 349 402 10,000  Level Atlanta Center
01:36PM 33.4747 -84.1608 177° South 361 415 10,000  Level Atlanta Center
01:37PM 33.3767 -84.1508 175° South 361 415 10,000 480 Level Atlanta Center
01:38PM 33.2767 -84.1406 175° South 363 418 11,000 1,500 Climbing Atlanta Center
01:39PM 33.1742 -84.1256 173° South 376 433 13,100 2,160 Climbing Atlanta Center
01:40PM 33.0700 -84.0908 164° South 382 440 15,400 2,280 Climbing Atlanta Center
01:41PM 32.9656 -84.0561 164° South 387 445 17,700 2,100 Climbing Atlanta Center
01:42PM 32.8611 -84.0214 164° South 387 445 19,700 2,100 Climbing Atlanta Center
01:43PM 32.7569 -83.9819 162° South 392 451 22,000 2,040 Climbing Atlanta Center
01:44PM 32.6400 -83.9450 165° South 397 457 23,800 1,620 Climbing Atlanta Center
01:45PM 32.5292 -83.9033 162° South 402 463 25,300 1,500 Climbing Atlanta Center
01:46PM 32.4144 -83.8642 164° South 414 476 26,800 1,320 Climbing Atlanta Center
01:48PM 32.1800 -83.7836 164° South 438 504 29,300 1,200 Climbing Jacksonville Center
01:49PM 32.0550 -83.7406 164° South 450 518 30,400 840 Climbing Jacksonville Center
01:50PM 31.9281 -83.6956 163° South 463 533 31,000 300 Climbing Jacksonville Center
01:51PM 31.7969 -83.6503 164° South 481 554 31,000  Level Jacksonville Center
01:52PM 31.6633 -83.6078 165° South 487 560 31,000  Level Jacksonville Center
01:53PM 31.5406 -83.5631 163° South 506 582 31,000  Level Jacksonville Center
01:54PM 31.4111 -83.5206 164° South 499 574 31,000  Level Jacksonville Center
01:55PM 31.2778 -83.4736 163° South 499 574 31,000  Level Jacksonville Center
01:56PM 31.1508 -83.4047 155° Southeast 499 574 31,000  Level Jacksonville Center
01:57PM 31.0278 -83.3289 152° Southeast 499 574 31,000 -720 Level Jacksonville Center
01:58PM 30.9133 -83.2558 151° Southeast 493 567 29,600 -2,100 Descending Jacksonville Center
01:59PM 30.7881 -83.1803 153° Southeast 466 536 26,800 -2,700 Descending Jacksonville Center
02:00PM 30.6692 -83.1050 151° Southeast 474 545 24,300 -1,440 Descending Jacksonville Center
02:01PM 30.5525 -83.0397 154° Southeast 468 539 24,000 -180 Descending Jacksonville Center
02:02PM 30.4522 -82.9794 153° Southeast 463 533 24,000 -420 Level Jacksonville Center
02:03PM 30.3439 -82.9119 152° Southeast 458 527 23,200 -1,500 Descending Jacksonville Center
02:04PM 30.2311 -82.8469 154° Southeast 451 519 21,100 -2,340 Descending Jacksonville Center
02:05PM 30.1225 -82.7894 155° Southeast 431 496 18,900 -2,100 Descending Jacksonville Center
02:06PM 30.0325 -82.7319 151° Southeast 428 493 17,400 -1,920 Descending Jacksonville Center
02:07PM 29.9133 -82.6625 153° Southeast 418 481 15,000 -2,160 Descending Jacksonville Center
02:08PM 29.8111 -82.6031 153° Southeast 408 470 12,900 -2,040 Descending Jacksonville Center
02:09PM 29.7150 -82.5458 153° Southeast 394 453 10,900 -1,620 Descending Jacksonville Center
02:10PM 29.6394 -82.5008 153° Southeast 351 404 10,000 -1,020 Descending Jacksonville Center
02:11PM 29.5497 -82.4461 152° Southeast 275 316 8,900 -1,140 Descending Jacksonville Center
02:12PM 29.4869 -82.4083 152° Southeast 296 341 7,500 -1,500 Descending Jacksonville Center
02:13PM 29.4158 -82.3800 161° South 270 311 6,000 -1,740 Descending Jacksonville Center
02:14PM 29.3425 -82.3589 166° South 260 299 4,200 -1,440 Descending Jacksonville Center
02:15PM 29.2694 -82.3356 164° South 255 293 3,100 -600 Descending Jacksonville Center
02:16PM 29.2089 -82.3122 161° South 231 266 3,000 -540 Descending Jacksonville Center
02:17PM 29.1544 -82.2886 159° South 212 244 2,100 -720 Descending Jacksonville Center
02:19PM 29.1064 -82.2628 155° Southeast 140 161 1,500 -540 Descending Jacksonville Center
02:19PM 29.1167 -82.2319 69° East 123 142 1,000 -660 Descending Jacksonville Center
02:20PM 29.1500 -82.2269 North 129 148 300 -780 Descending Jacksonville Center